sensor_id;sensor_type;location;lat;lon;timestamp;P1;durP1;ratioP1;P2;durP2;ratioP2
3401;SDS011;1714;49.756;8.610;2023-01-29T04:49:08;11.43;;;7.05;;
3401;SDS011;1714;49.756;8.610;2023-01-29T05:00:04;10.20;;;6.75;;
3401;SDS011;1714;49.756;8.610;2023-01-29T05:10:46;13.13;;;7.43;;
3401;SDS011;1714;49.756;8.610;2023-01-29T05:21:24;14.60;;;7.90;;
3401;SDS011;1714;49.756;8.610;2023-01-29T05:32:01;10.47;;;6.57;;
3401;SDS011;1714;49.756;8.610;2023-01-29T05:42:38;12.18;;;7.45;;
3401;SDS011;1714;49.756;8.610;2023-01-29T05:53:13;12.90;;;7.28;;
3401;SDS011;1714;49.756;8.610;2023-01-29T06:03:49;13.52;;;7.22;;
3401;SDS011;1714;49.756;8.610;2023-01-29T06:14:25;9.73;;;5.22;;
3401;SDS011;1714;49.756;8.610;2023-01-29T06:25:01;9.25;;;6.00;;
3401;SDS011;1714;49.756;8.610;2023-01-29T06:35:36;9.65;;;5.32;;
3401;SDS011;1714;49.756;8.610;2023-01-29T06:46:13;12.43;;;6.80;;
3401;SDS011;1714;49.756;8.610;2023-01-29T06:56:49;15.35;;;8.10;;
3401;SDS011;1714;49.756;8.610;2023-01-29T07:07:25;10.15;;;6.53;;
3401;SDS011;1714;49.756;8.610;2023-01-29T07:18:02;10.73;;;6.80;;
3401;SDS011;1714;49.756;8.610;2023-01-29T07:28:39;10.43;;;7.23;;
3401;SDS011;1714;49.756;8.610;2023-01-29T07:39:15;14.70;;;7.88;;
3401;SDS011;1714;49.756;8.610;2023-01-29T07:49:50;15.15;;;8.63;;
3401;SDS011;1714;49.756;8.610;2023-01-29T08:00:26;20.90;;;10.77;;
3401;SDS011;1714;49.756;8.610;2023-01-29T08:11:03;15.02;;;7.38;;
3401;SDS011;1714;49.756;8.610;2023-01-29T08:21:39;15.93;;;9.50;;
3401;SDS011;1714;49.756;8.610;2023-01-29T08:32:15;11.68;;;6.70;;
3401;SDS011;1714;49.756;8.610;2023-01-29T08:42:51;17.65;;;9.82;;
3401;SDS011;1714;49.756;8.610;2023-01-29T08:53:27;11.15;;;6.03;;
3401;SDS011;1714;49.756;8.610;2023-01-29T09:04:03;14.88;;;8.68;;
3401;SDS011;1714;49.756;8.610;2023-01-29T09:14:38;15.10;;;6.38;;
3401;SDS011;1714;49.756;8.610;2023-01-29T09:25:14;8.73;;;5.97;;
3401;SDS011;1714;49.756;8.610;2023-01-29T09:35:49;10.50;;;7.25;;
3401;SDS011;1714;49.756;8.610;2023-01-29T09:46:37;10.63;;;7.40;;
3401;SDS011;1714;49.756;8.610;2023-01-29T09:57:27;11.93;;;7.20;;
3401;SDS011;1714;49.756;8.610;2023-01-29T10:19:21;10.27;;;6.75;;
3401;SDS011;1714;49.756;8.610;2023-01-29T10:30:25;12.48;;;6.95;;
3401;SDS011;1714;49.756;8.610;2023-01-29T11:03:21;11.13;;;7.97;;
3401;SDS011;1714;49.756;8.610;2023-01-29T11:14:04;13.60;;;8.10;;
3401;SDS011;1714;49.756;8.610;2023-01-29T11:24:44;8.43;;;6.18;;
3401;SDS011;1714;49.756;8.610;2023-01-29T11:35:23;11.63;;;7.63;;
3401;SDS011;1714;49.756;8.610;2023-01-29T11:46:03;9.52;;;6.63;;
3401;SDS011;1714;49.756;8.610;2023-01-29T11:56:40;12.73;;;7.50;;
3401;SDS011;1714;49.756;8.610;2023-01-29T12:07:19;10.90;;;7.18;;
3401;SDS011;1714;49.756;8.610;2023-01-29T12:18:01;8.23;;;5.85;;
3401;SDS011;1714;49.756;8.610;2023-01-29T12:39:48;10.77;;;6.38;;
3401;SDS011;1714;49.756;8.610;2023-01-29T12:50:26;10.43;;;6.97;;
3401;SDS011;1714;49.756;8.610;2023-01-29T13:01:21;13.48;;;8.15;;
3401;SDS011;1714;49.756;8.610;2023-01-29T13:12:02;15.70;;;8.13;;
3401;SDS011;1714;49.756;8.610;2023-01-29T13:22:45;14.82;;;8.10;;
3401;SDS011;1714;49.756;8.610;2023-01-29T13:33:22;13.90;;;8.02;;
3401;SDS011;1714;49.756;8.610;2023-01-29T13:43:58;14.68;;;8.02;;
3401;SDS011;1714;49.756;8.610;2023-01-29T13:54:34;12.68;;;8.18;;
3401;SDS011;1714;49.756;8.610;2023-01-29T14:37:25;14.93;;;7.50;;
3401;SDS011;1714;49.756;8.610;2023-01-29T14:48:36;21.90;;;10.18;;
3401;SDS011;1714;49.756;8.610;2023-01-29T15:10:18;22.95;;;11.32;;
3401;SDS011;1714;49.756;8.610;2023-01-29T15:21:03;21.08;;;11.70;;
3401;SDS011;1714;49.756;8.610;2023-01-29T15:31:49;20.88;;;12.00;;
3401;SDS011;1714;49.756;8.610;2023-01-29T15:42:26;23.70;;;11.20;;
3401;SDS011;1714;49.756;8.610;2023-01-29T15:53:05;23.58;;;12.80;;
3401;SDS011;1714;49.756;8.610;2023-01-29T16:03:48;25.17;;;13.48;;
3401;SDS011;1714;49.756;8.610;2023-01-29T16:14:24;25.20;;;13.55;;
3401;SDS011;1714;49.756;8.610;2023-01-29T16:25:04;26.33;;;13.18;;
3401;SDS011;1714;49.756;8.610;2023-01-29T16:35:27;27.38;;;13.68;;
3401;SDS011;1714;49.756;8.610;2023-01-29T16:46:00;28.38;;;13.57;;
3401;SDS011;1714;49.756;8.610;2023-01-29T16:56:17;24.40;;;12.60;;
3401;SDS011;1714;49.756;8.610;2023-01-29T17:06:37;27.50;;;13.60;;
3401;SDS011;1714;49.756;8.610;2023-01-29T17:17:03;27.13;;;13.77;;
3401;SDS011;1714;49.756;8.610;2023-01-29T17:27:21;34.13;;;14.45;;
3401;SDS011;1714;49.756;8.610;2023-01-29T17:37:37;36.70;;;15.93;;
3401;SDS011;1714;49.756;8.610;2023-01-29T17:47:52;24.42;;;12.20;;
3401;SDS011;1714;49.756;8.610;2023-01-29T17:58:13;29.05;;;13.68;;
3401;SDS011;1714;49.756;8.610;2023-01-29T18:18:53;24.10;;;12.63;;
3401;SDS011;1714;49.756;8.610;2023-01-29T18:29:09;25.25;;;13.77;;
3401;SDS011;1714;49.756;8.610;2023-01-29T18:39:24;27.05;;;13.68;;
3401;SDS011;1714;49.756;8.610;2023-01-29T18:49:40;32.08;;;16.27;;
3401;SDS011;1714;49.756;8.610;2023-01-29T18:59:56;34.83;;;18.35;;
3401;SDS011;1714;49.756;8.610;2023-01-29T19:10:12;32.28;;;16.02;;
3401;SDS011;1714;49.756;8.610;2023-01-29T19:20:30;35.33;;;18.42;;
3401;SDS011;1714;49.756;8.610;2023-01-29T19:30:46;36.25;;;17.73;;
3401;SDS011;1714;49.756;8.610;2023-01-29T19:41:01;35.35;;;17.20;;
3401;SDS011;1714;49.756;8.610;2023-01-29T19:51:20;37.45;;;16.55;;
3401;SDS011;1714;49.756;8.610;2023-01-29T20:11:53;26.73;;;14.52;;
3401;SDS011;1714;49.756;8.610;2023-01-29T20:22:08;28.95;;;15.30;;
3401;SDS011;1714;49.756;8.610;2023-01-29T20:32:24;31.43;;;18.03;;
3401;SDS011;1714;49.756;8.610;2023-01-29T20:42:40;30.38;;;14.80;;
3401;SDS011;1714;49.756;8.610;2023-01-29T20:52:56;29.40;;;15.25;;
3401;SDS011;1714;49.756;8.610;2023-01-29T21:03:12;29.98;;;14.18;;
3401;SDS011;1714;49.756;8.610;2023-01-29T21:13:47;32.08;;;16.25;;
3401;SDS011;1714;49.756;8.610;2023-01-29T21:24:25;19.93;;;10.10;;
3401;SDS011;1714;49.756;8.610;2023-01-29T21:35:01;26.33;;;14.43;;
3401;SDS011;1714;49.756;8.610;2023-01-29T21:45:37;25.33;;;14.50;;
3401;SDS011;1714;49.756;8.610;2023-01-29T21:56:13;27.33;;;14.32;;
3401;SDS011;1714;49.756;8.610;2023-01-29T22:06:53;29.92;;;15.38;;
3401;SDS011;1714;49.756;8.610;2023-01-29T22:17:29;31.92;;;15.90;;
3401;SDS011;1714;49.756;8.610;2023-01-29T22:28:05;25.17;;;14.82;;
